Keresley, United Kingdom
Current Conditions -  °F | °C
As of 1:50 AM on Friday 21 Nov 2014 (Local Time) from EGBE Reporting Station
Haze Haze  
Wind Chill: 42°   Ceiling: Unl
Heat Index: 45°   Visibility: 2.8mi
Dew Point: 45°   Wind: 5mph
Humidity: 100%   Direction: 60°ENE
Pressure: 30.18"   Gusts: NA
Location:  52.45°N, 1.53°W
Report Text: EGBE 210150Z 06004KT 4500 BR SCT026 07/07 Q1022
Loading
Personal Weather Stations






























Interactive Weather Map New forecast layout! Learn more

10-Day Weather Forecast

Advertisements
Track Severe Weather on mobile